createdAt,value
2022-11-28T12:14:28.088Z,22.73
2022-11-28T12:17:47.934Z,22.60
2022-11-28T12:20:31.177Z,22.17
2022-11-28T12:25:45.194Z,24.55
2022-11-28T12:28:28.293Z,25.08
2022-11-28T12:31:45.490Z,23.95
2022-11-28T12:34:26.171Z,24.38
2022-11-28T12:37:20.540Z,22.77
2022-11-28T12:40:12.147Z,23.57
2022-11-28T12:43:01.153Z,22.40
2022-11-28T12:45:35.936Z,20.75
2022-11-28T12:48:17.503Z,21.02
2022-11-28T12:50:50.033Z,19.15
2022-11-28T12:53:48.612Z,19.45
2022-11-28T12:56:17.858Z,20.27
2022-11-28T12:58:51.621Z,20.08
2022-11-28T13:01:52.083Z,20.02
2022-11-28T13:04:32.619Z,20.35
2022-11-28T13:07:24.849Z,20.92
2022-11-28T13:10:12.122Z,22.00
2022-11-28T13:12:47.463Z,21.20
2022-11-28T13:15:30.523Z,20.63
2022-11-28T13:18:35.819Z,20.90
2022-11-28T13:21:33.387Z,20.95
2022-11-28T13:24:07.314Z,20.02
2022-11-28T13:26:42.695Z,20.38
2022-11-28T13:29:45.138Z,22.10
2022-11-28T13:32:48.658Z,19.63
2022-11-28T13:35:17.862Z,19.17
2022-11-28T13:43:46.356Z,19.40
2022-11-28T13:46:18.371Z,17.80
2022-11-28T13:51:35.277Z,19.88
2022-11-28T13:54:17.532Z,20.67
2022-11-28T13:57:03.653Z,19.70
2022-11-28T13:59:31.774Z,20.77
2022-11-28T14:02:01.990Z,20.10
2022-11-28T14:04:31.265Z,21.98
2022-11-28T14:07:06.794Z,20.73
2022-11-28T14:10:07.207Z,20.20
2022-11-28T14:12:47.290Z,22.05
2022-11-28T14:15:34.811Z,19.10
2022-11-28T14:18:55.865Z,20.80
2022-11-28T14:21:42.993Z,20.08
2022-11-28T14:24:45.746Z,20.27
2022-11-28T14:27:36.580Z,22.40
2022-11-28T14:30:04.665Z,21.75
2022-11-28T14:32:47.067Z,21.65
2022-11-28T14:35:39.609Z,21.70
2022-11-28T14:38:46.425Z,21.38
2022-11-28T14:41:13.782Z,20.13
2022-11-28T14:43:52.176Z,24.00
2022-11-28T14:46:27.644Z,21.80
2022-11-28T14:49:00.758Z,22.10
2022-11-28T14:51:45.849Z,22.02
2022-11-28T14:54:36.362Z,21.20
2022-11-28T14:57:11.744Z,21.88
2022-11-28T14:59:43.280Z,22.05
2022-11-28T15:02:13.102Z,22.05
2022-11-28T15:05:17.207Z,22.27
2022-11-28T15:08:11.546Z,23.63
2022-11-28T15:10:54.044Z,25.07
2022-11-28T15:13:50.227Z,23.63
2022-11-28T15:16:18.957Z,23.23
2022-11-28T15:21:22.651Z,23.30
2022-11-28T15:23:51.259Z,23.13
2022-11-28T15:26:29.403Z,22.35
2022-11-28T15:29:30.277Z,23.05
2022-11-28T15:31:59.608Z,22.55
2022-11-28T15:34:32.118Z,23.25
2022-11-28T15:37:20.060Z,23.42
2022-11-28T15:39:50.256Z,25.05
2022-11-28T15:42:26.996Z,24.48
2022-11-28T15:45:17.017Z,25.10
2022-11-28T15:47:45.747Z,26.30
2022-11-28T15:50:19.886Z,27.27
2022-11-28T15:53:15.064Z,23.42
2022-11-28T15:55:42.124Z,23.05
2022-11-28T15:58:21.275Z,23.63
2022-11-28T16:01:03.095Z,23.25
2022-11-28T16:03:35.623Z,22.48
2022-11-28T16:06:03.988Z,21.52
2022-11-28T16:08:35.315Z,21.50
2022-11-28T16:11:08.644Z,23.40
2022-11-28T16:13:38.106Z,22.35
2022-11-28T16:16:16.751Z,23.48
2022-11-28T16:18:57.277Z,22.70
2022-11-28T16:21:28.797Z,23.60
2022-11-28T16:23:55.953Z,22.92
2022-11-28T16:26:36.856Z,21.83
2022-11-28T16:29:09.549Z,22.52
2022-11-28T16:31:39.955Z,20.80
2022-11-28T16:34:12.770Z,21.80
2022-11-28T16:36:40.061Z,20.83
2022-11-28T16:39:09.606Z,21.27
2022-11-28T16:41:37.787Z,21.05
2022-11-28T16:44:07.372Z,19.38
2022-11-28T16:46:57.873Z,21.45
2022-11-28T16:49:28.011Z,23.20
2022-11-28T16:52:22.377Z,25.23
2022-11-28T16:54:49.758Z,26.05
2022-11-28T16:57:17.037Z,24.05
2022-11-28T16:59:44.732Z,23.98
2022-11-28T17:02:18.927Z,24.67
2022-11-28T17:04:47.630Z,25.00
2022-11-28T17:07:17.534Z,25.35
2022-11-28T17:09:46.020Z,23.52
2022-11-28T17:12:30.377Z,24.77
2022-11-28T17:14:59.820Z,23.90
2022-11-28T17:17:27.887Z,23.02
2022-11-28T17:19:54.745Z,23.08
2022-11-28T17:22:25.778Z,25.25
2022-11-28T17:24:59.286Z,24.92
2022-11-28T17:27:26.001Z,24.30
2022-11-28T17:29:52.625Z,25.20
2022-11-28T17:32:19.265Z,24.92
2022-11-28T17:34:46.557Z,25.27
2022-11-28T17:37:13.661Z,23.45
2022-11-28T17:39:40.461Z,25.35
2022-11-28T17:42:07.098Z,25.08
2022-11-28T17:44:40.540Z,26.58
2022-11-28T17:47:07.124Z,25.23
2022-11-28T17:49:33.820Z,26.98
2022-11-28T17:52:02.381Z,26.17
2022-11-28T17:54:32.164Z,24.20
2022-11-28T17:56:59.011Z,22.10
2022-11-28T17:59:26.029Z,23.33
2022-11-28T18:01:53.203Z,22.17
2022-11-28T18:04:19.858Z,22.55
2022-11-28T18:06:47.353Z,23.17
2022-11-28T18:09:14.715Z,22.58
2022-11-28T18:11:42.163Z,22.83
2022-11-28T18:14:09.063Z,21.20
2022-11-28T18:16:35.744Z,22.10
2022-11-28T18:19:03.562Z,23.15
2022-11-28T18:21:30.168Z,20.95
2022-11-28T18:23:56.767Z,20.55
2022-11-28T18:26:24.884Z,19.63
2022-11-28T18:28:51.915Z,19.27
2022-11-28T18:31:20.447Z,20.45
2022-11-28T18:33:47.242Z,20.25
2022-11-28T18:36:37.705Z,20.88
2022-11-28T18:39:06.842Z,20.05
2022-11-28T18:41:33.585Z,17.98
2022-11-28T18:44:02.056Z,18.77
2022-11-28T18:46:29.898Z,18.17
2022-11-28T18:48:56.779Z,23.13
2022-11-28T18:51:29.699Z,21.45
2022-11-28T18:53:57.427Z,22.90
2022-11-28T18:56:26.585Z,21.95
2022-11-28T18:58:54.277Z,21.02
2022-11-28T19:01:24.150Z,21.15
2022-11-28T19:03:53.244Z,22.00
2022-11-28T19:06:21.070Z,23.00
2022-11-28T19:08:48.507Z,25.10
2022-11-28T19:11:16.700Z,27.55
2022-11-28T19:13:47.768Z,27.05
2022-11-28T19:16:17.738Z,30.90
2022-11-28T19:18:45.039Z,29.40
2022-11-28T19:21:15.562Z,26.70
2022-11-28T19:23:43.290Z,22.45
2022-11-28T19:26:13.041Z,25.60
2022-11-28T19:28:41.317Z,27.42
2022-11-28T19:31:12.546Z,23.60
2022-11-28T19:33:39.205Z,22.52
2022-11-28T19:36:08.578Z,21.13
2022-11-28T19:38:38.692Z,21.52
2022-11-28T19:41:20.127Z,20.40
2022-11-28T19:43:50.134Z,20.23
2022-11-28T19:46:18.516Z,20.00
2022-11-28T19:48:45.349Z,18.55
2022-11-28T19:51:12.869Z,18.52
2022-11-28T19:53:41.638Z,17.98
2022-11-28T19:56:15.414Z,17.95
2022-11-28T19:58:43.210Z,16.80
2022-11-28T20:01:15.505Z,17.35
2022-11-28T20:03:42.982Z,16.40
2022-11-28T20:06:11.951Z,15.68
2022-11-28T20:08:39.098Z,16.08
2022-11-28T20:11:15.458Z,16.75
2022-11-28T20:13:44.590Z,17.38
2022-11-28T20:16:13.319Z,17.83
2022-11-28T20:18:41.608Z,17.55
2022-11-28T20:21:17.036Z,18.27
2022-11-28T20:23:46.482Z,18.45
2022-11-28T20:26:14.891Z,17.83
2022-11-28T20:28:42.605Z,17.50
2022-11-28T20:31:39.314Z,16.80
2022-11-28T20:34:09.640Z,18.10
2022-11-28T20:36:39.715Z,17.77
2022-11-28T20:39:07.399Z,18.00
2022-11-28T20:41:34.024Z,19.13
2022-11-28T20:44:02.049Z,17.15
2022-11-28T20:46:31.453Z,16.08
2022-11-28T20:49:00.811Z,16.80
2022-11-28T20:51:33.366Z,16.65
2022-11-28T20:54:01.312Z,19.35
2022-11-28T20:56:30.751Z,17.30
2022-11-28T20:59:02.530Z,17.75
2022-11-28T21:01:34.238Z,17.60
2022-11-28T21:04:06.563Z,18.20
2022-11-28T21:06:39.444Z,17.90
2022-11-28T21:09:06.726Z,16.27
2022-11-28T21:14:20.150Z,16.27
2022-11-28T21:16:46.766Z,16.58
2022-11-28T21:19:13.529Z,16.45
2022-11-28T21:21:40.242Z,15.75
2022-11-28T21:24:15.282Z,16.40
2022-11-28T21:26:53.112Z,17.20
2022-11-28T21:29:21.595Z,17.13
2022-11-28T21:31:48.411Z,17.60
2022-11-28T21:34:16.952Z,16.88
2022-11-28T21:36:44.149Z,16.83
2022-11-28T21:39:14.497Z,17.75
2022-11-28T21:41:41.298Z,16.63
2022-11-28T21:44:07.944Z,18.02
2022-11-28T21:46:38.327Z,18.52
2022-11-28T21:49:04.940Z,18.48
2022-11-28T21:51:31.808Z,19.15
2022-11-28T21:53:59.721Z,18.20
2022-11-28T21:56:26.684Z,17.92
2022-11-28T21:58:53.400Z,17.38
2022-11-28T22:01:20.139Z,18.20
2022-11-28T22:03:47.226Z,17.98
2022-11-28T22:06:23.263Z,18.27
2022-11-28T22:08:50.672Z,18.48
2022-11-28T22:11:18.981Z,18.40
2022-11-28T22:13:48.193Z,19.15
2022-11-28T22:16:23.484Z,19.30
2022-11-28T22:19:01.433Z,19.27
2022-11-28T22:21:51.433Z,18.05
2022-11-28T22:24:16.083Z,18.70
2022-11-28T22:26:42.924Z,20.50
2022-11-28T22:29:09.813Z,20.50
2022-11-28T22:31:36.540Z,20.77
2022-11-28T22:34:06.049Z,20.95
2022-11-28T22:36:32.679Z,22.33
2022-11-28T22:38:59.597Z,23.65
2022-11-28T22:41:31.277Z,22.73
2022-11-28T22:44:00.899Z,24.60
2022-11-28T22:46:29.034Z,25.63
2022-11-28T22:48:58.894Z,25.98
2022-11-28T22:51:27.061Z,25.75
2022-11-28T22:53:55.030Z,27.48
2022-11-28T22:56:24.554Z,24.92
2022-11-28T22:58:52.125Z,25.38
2022-11-28T23:01:25.018Z,26.42
2022-11-28T23:03:52.467Z,26.98
2022-11-28T23:06:22.958Z,27.60
2022-11-28T23:08:51.375Z,25.08
2022-11-28T23:11:20.997Z,25.95
2022-11-28T23:13:50.454Z,26.15
2022-11-28T23:16:26.918Z,25.77
2022-11-28T23:18:56.129Z,25.98
2022-11-28T23:21:24.099Z,27.77
2022-11-28T23:23:51.391Z,26.48
2022-11-28T23:26:20.850Z,25.80
2022-11-28T23:28:48.271Z,25.52
2022-11-28T23:31:25.561Z,24.90
2022-11-28T23:33:53.666Z,26.90
2022-11-28T23:36:23.109Z,24.75
2022-11-28T23:38:52.097Z,25.15
2022-11-28T23:41:19.113Z,25.45
2022-11-28T23:43:46.378Z,26.02
2022-11-28T23:46:14.448Z,23.50
2022-11-28T23:48:41.661Z,23.15
2022-11-28T23:51:08.546Z,23.60
2022-11-28T23:53:36.138Z,23.85
2022-11-28T23:56:14.475Z,22.25
2022-11-28T23:58:41.860Z,22.05
